"WATCHING THE WEATHER TO PROTECT LIFE AND PROPERTY"


THERE ARE CURRENTLY NO WATCHES NOR WARNINGS


Aviation
Satellite (InfraRed)


KFLL 010253Z 12010KT 10SM FEW020 FEW040 25/22 A3013 RMK AO2 SLP201 T02500222 50001 $
KMCO 010253Z 16011KT 10SM FEW060 FEW250 23/21 A3012 RMK AO2 SLP196 T02330211 51007
KMIA 010253Z 10011KT 10SM FEW021 25/21 A3013 RMK AO2 SLP204 60000 T02500211 51003 $
KTPA 010253Z 18004KT 10SM FEW047 FEW270 23/21 A3011 RMK AO2 SLP196 T02330206 51004
MDPP 010300Z 00000KT 9999 BKN015 22/22 Q1019
MDSD 010300Z 36004KT 9999 SCT016 23/21 Q1018
MKJS 010300Z 11010KT 9999 FEW024 26/22 Q1016
MTPP 010059Z AUTO 36003KT 300V050 9000 ////// 27/21 Q1016 A3000 NOSIG
MUHA 010255Z 09002KT 9000 SCT045 22/21 Q1018
MYNN 010300Z 12009KT 9999 SCT020 25/21 A3018
TAPA 010300Z 07010KT 030V130 9999 BKN018 24/19 Q1016 NOSIG
TFFF 010330Z AUTO 09009KT 9999 SCT036 24/18 Q1014 NOSIG
TFFR 010330Z AUTO 26001KT CAVOK 22/18 Q1015 BECMG 07010KT
TIST 010253Z AUTO 07018G24KT 10SM CLR 26/18 A3005 RMK AO2 PK WND 09030/0243 SLP176 60000 T02560183 51003 $
TISX 010253Z AUTO 06013KT 10SM FEW029 25/19 A3004 RMK AO2 SLP171 T02500194 50002
TJSJ 010256Z 07015KT 10SM SCT026 SCT042 26/19 A3008 RMK AO2 SLP183 60000 T02560194 51004
TKPK 282300Z 05011KT 9999 FEW017 24/20 Q1016
TNCA 010300Z 08015KT 9999 FEW019 26/21 Q1013 NOSIG
TNCB 010255Z AUTO 07010KT 9999 SCT018/// BKN021/// BKN027/// 26/22 Q1013
TNCC 010301Z 09013KT 9999 -SHRA SCT017TCU 25/21 Q1013 NOSIG
TNCE 010255Z AUTO 05014KT 010V080 //// // ///////// ///19 Q1016 RE//
TNCM 010300Z 05008KT 030V110 9999 VCSH SCT016 25/20 Q1018 RMK VCSH E
TQPF 282300Z 07010KT 9999 FEW019 25/19 Q1017
TUPJ 010100Z 07012KT 10SM SCT019 26/22 A3006 RMK Q1018 VIS16KM